Time;durP1;ratioP1;P1;durP2;ratioP2;P2;SDS_P1;SDS_P2;PMS_P1;PMS_P2;Temp;Humidity;BMP_temperature;BMP_pressure;BME280_temperature;BME280_humidity;BME280_pressure;Samples;Min_cycle;Max_cycle;Signal;HPM_P1;HPM_P2
2022/10/06 00:01:01;;;;;;;;;;;;;;;13.01;79.20;102098.13;5023628;28;19923;-58
2022/10/06 00:03:27;;;;;;;;;;;;;;;12.97;79.57;102104.72;5027846;28;19987;-56
2022/10/06 00:05:57;;;;;;;;;;;;;;;12.93;79.43;102106.03;5029991;28;20058;-57
2022/10/06 00:08:22;;;;;;;;;;;;;;;12.88;79.86;102117.16;5032176;28;19917;-56
2022/10/06 00:10:47;;;;;;;;;;;;;;;12.86;79.91;102120.97;5025159;28;19917;-57
2022/10/06 00:13:12;;;;;;;;;;;;;;;12.83;80.20;102123.97;5029256;28;20360;-58
2022/10/06 00:15:37;;;;;;;;;;;;;;;12.80;80.57;102130.44;5026793;28;19924;-58
2022/10/06 00:18:03;;;;;;;;;;;;;;;12.78;80.82;102132.41;5027248;28;19925;-56
2022/10/06 00:20:28;;;;;;;;;;;;;;;12.74;80.69;102138.22;5025286;28;20468;-57
2022/10/06 00:22:55;;;;;;;;;;;;;;;12.71;81.07;102150.81;5028600;28;19950;-55
2022/10/06 00:25:20;;;;;;;;;;;;;;;12.64;81.30;102152.44;5029038;28;19917;-56
2022/10/06 00:27:47;;;;;;;;;;;;;;;12.61;81.50;102152.75;5027760;28;20593;-56
2022/10/06 00:30:14;;;;;;;;;;;;;;;12.62;81.52;102167.75;5025352;28;19987;-56
2022/10/06 00:32:40;;;;;;;;;;;;;;;12.62;81.35;102165.06;5023749;28;19932;-56
2022/10/06 00:35:06;;;;;;;;;;;;;;;12.61;81.54;102167.88;5024368;28;19917;-57
2022/10/06 00:37:34;;;;;;;;;;;;;;;12.60;81.07;102175.06;5026564;28;19951;-57
2022/10/06 00:39:59;;;;;;;;;;;;;;;12.60;81.16;102168.88;5023087;28;20047;-57
2022/10/06 00:42:25;;;;;;;;;;;;;;;12.64;80.70;102179.09;5028392;28;20530;-57
2022/10/06 00:44:50;;;;;;;;;;;;;;;12.65;80.72;102179.91;5023665;28;20016;-56
2022/10/06 00:47:17;;;;;;;;;;;;;;;12.62;80.15;102186.41;5026929;28;20012;-58
2022/10/06 00:49:44;;;;;;;;;;;;;;;12.60;80.45;102188.38;5022676;28;20307;-57
2022/10/06 00:52:11;;;;;;;;;;;;;;;12.54;80.12;102194.31;5032730;28;20020;-57
2022/10/06 00:54:37;;;;;;;;;;;;;;;12.53;80.26;102195.31;5024618;28;20394;-57
2022/10/06 00:57:03;;;;;;;;;;;;;;;12.52;80.01;102203.44;5033068;28;20420;-57
2022/10/06 00:59:28;;;;;;;;;;;;;;;12.49;80.25;102206.41;5025436;28;19952;-58
2022/10/06 01:02:03;;;;;;;;;;;;;;;12.44;80.08;102200.69;5026148;28;19924;-58
2022/10/06 01:04:32;;;;;;;;;;;;;;;12.40;79.86;102210.78;5030643;28;19917;-56
2022/10/06 01:06:58;;;;;;;;;;;;;;;12.35;80.00;102213.91;5029571;28;19917;-57
2022/10/06 01:09:23;;;;;;;;;;;;;;;12.32;79.98;102222.19;5022438;28;20015;-57
2022/10/06 01:11:50;;;;;;;;;;;;;;;12.29;79.79;102225.16;5030612;28;19924;-57
2022/10/06 01:14:16;;;;;;;;;;;;;;;12.27;80.25;102223.63;5032994;28;20003;-57
2022/10/06 01:16:43;;;;;;;;;;;;;;;12.27;80.04;102239.63;5031936;28;19917;-58
2022/10/06 01:19:13;;;;;;;;;;;;;;;12.29;80.18;102240.31;5032903;28;19944;-58
2022/10/06 01:21:43;;;;;;;;;;;;;;;12.28;80.02;102239.47;5027365;28;19963;-58
2022/10/06 01:24:08;;;;;;;;;;;;;;;12.28;80.46;102246.63;5029740;28;19980;-57
2022/10/06 01:26:35;;;;;;;;;;;;;;;12.31;80.17;102249.81;5031980;28;19924;-58
2022/10/06 01:29:00;;;;;;;;;;;;;;;12.33;80.17;102249.69;5031648;28;20657;-57
2022/10/06 01:31:25;;;;;;;;;;;;;;;12.35;80.49;102259.19;5029357;28;19929;-57
2022/10/06 01:33:51;;;;;;;;;;;;;;;12.35;80.25;102258.34;5031379;28;19921;-56
2022/10/06 01:36:16;;;;;;;;;;;;;;;12.33;80.42;102257.66;5036720;28;19917;-57
2022/10/06 01:38:41;;;;;;;;;;;;;;;12.32;80.81;102258.66;5031315;28;19921;-58
2022/10/06 01:41:07;;;;;;;;;;;;;;;12.33;80.62;102265.66;5026213;28;20354;-58
2022/10/06 01:43:32;;;;;;;;;;;;;;;12.33;80.87;102268.31;5033034;28;19925;-58
2022/10/06 01:45:57;;;;;;;;;;;;;;;12.32;81.03;102271.97;5032793;28;19925;-57
2022/10/06 01:48:23;;;;;;;;;;;;;;;12.30;80.91;102266.78;5035923;28;19920;-57
2022/10/06 01:50:48;;;;;;;;;;;;;;;12.28;80.90;102267.94;5027921;28;20495;-57
2022/10/06 01:53:14;;;;;;;;;;;;;;;12.27;80.92;102274.25;5027948;28;20020;-57
2022/10/06 01:55:39;;;;;;;;;;;;;;;12.22;80.92;102273.84;5025624;28;19956;-58
2022/10/06 01:58:05;;;;;;;;;;;;;;;12.19;80.77;102282.13;5026400;28;19913;-56
2022/10/06 02:00:30;;;;;;;;;;;;;;;12.19;80.82;102282.13;5028028;28;19924;-56
2022/10/06 02:02:56;;;;;;;;;;;;;;;12.17;81.11;102292.09;5035864;28;19966;-57
2022/10/06 02:05:21;;;;;;;;;;;;;;;12.14;81.27;102293.19;5027606;28;19955;-56
2022/10/06 02:07:46;;;;;;;;;;;;;;;12.10;80.96;102295.31;5025405;28;20480;-57
2022/10/06 02:10:11;;;;;;;;;;;;;;;12.09;80.78;102290.97;5030776;28;19925;-57
2022/10/06 02:12:36;;;;;;;;;;;;;;;12.04;80.88;102297.72;5030623;28;19924;-56
2022/10/06 02:15:02;;;;;;;;;;;;;;;12.00;81.08;102307.81;5032993;28;19925;-57
2022/10/06 02:17:28;;;;;;;;;;;;;;;11.96;81.05;102302.94;5028116;28;19913;-57
2022/10/06 02:19:53;;;;;;;;;;;;;;;11.87;81.25;102317.94;5036285;28;19960;-56
2022/10/06 02:22:18;;;;;;;;;;;;;;;11.83;81.52;102323.69;5026668;28;19924;-55
2022/10/06 02:24:43;;;;;;;;;;;;;;;11.82;81.35;102314.84;5024053;28;20376;-57
2022/10/06 02:27:09;;;;;;;;;;;;;;;11.79;81.63;102323.13;5028402;28;20026;-56
2022/10/06 02:29:34;;;;;;;;;;;;;;;11.78;81.73;102329.44;5026509;28;19921;-56
2022/10/06 02:31:59;;;;;;;;;;;;;;;11.74;81.51;102336.84;5029266;28;19923;-57
2022/10/06 02:34:25;;;;;;;;;;;;;;;11.69;81.62;102331.09;5031340;28;19925;-56
2022/10/06 02:36:51;;;;;;;;;;;;;;;11.67;81.88;102342.88;5034563;28;20588;-55
2022/10/06 02:39:16;;;;;;;;;;;;;;;11.61;82.23;102344.28;5030110;28;19917;-57
2022/10/06 02:41:41;;;;;;;;;;;;;;;11.58;82.24;102344.56;5028502;28;19970;-55
2022/10/06 02:44:06;;;;;;;;;;;;;;;11.56;82.13;102356.28;5026374;28;19916;-56
2022/10/06 02:46:31;;;;;;;;;;;;;;;11.53;82.48;102356.56;5026281;28;19917;-56
2022/10/06 02:48:57;;;;;;;;;;;;;;;11.52;82.18;102357.56;5029797;28;20390;-56
2022/10/06 02:51:22;;;;;;;;;;;;;;;11.46;82.54;102357.13;5027583;28;19925;-57
2022/10/06 02:53:48;;;;;;;;;;;;;;;11.45;82.27;102359.94;5031194;28;19987;-58
2022/10/06 02:56:15;;;;;;;;;;;;;;;11.43;82.66;102367.22;5035986;28;19917;-58
2022/10/06 02:58:41;;;;;;;;;;;;;;;11.41;82.46;102378.00;5025321;28;19968;-58
2022/10/06 03:01:11;;;;;;;;;;;;;;;11.34;82.48;102384.84;5024698;28;19921;-58
2022/10/06 03:03:37;;;;;;;;;;;;;;;11.29;82.49;102380.94;5030188;28;19912;-58
2022/10/06 03:06:04;;;;;;;;;;;;;;;11.22;82.49;102388.59;5030825;28;19925;-57
2022/10/06 03:08:29;;;;;;;;;;;;;;;11.16;82.74;102389.16;5028950;28;20399;-56
2022/10/06 03:10:58;;;;;;;;;;;;;;;11.13;82.95;102398.25;5024801;28;19917;-58
2022/10/06 03:13:23;;;;;;;;;;;;;;;11.10;82.98;102403.00;5030209;28;19921;-56
2022/10/06 03:15:48;;;;;;;;;;;;;;;11.03;83.27;102396.53;5030118;28;19923;-58
2022/10/06 03:18:13;;;;;;;;;;;;;;;10.99;83.37;102406.63;5031724;28;19921;-57
2022/10/06 03:20:38;;;;;;;;;;;;;;;10.97;83.89;102402.38;5030553;28;19961;-58
2022/10/06 03:23:04;;;;;;;;;;;;;;;10.94;83.94;102408.81;5030667;28;19948;-57
2022/10/06 03:25:29;;;;;;;;;;;;;;;10.91;84.02;102409.06;5026499;28;19913;-57
2022/10/06 03:27:54;;;;;;;;;;;;;;;10.91;84.17;102414.41;5026532;28;19924;-57
2022/10/06 03:30:19;;;;;;;;;;;;;;;10.89;83.91;102415.50;5024502;28;19913;-56
2022/10/06 03:32:44;;;;;;;;;;;;;;;10.84;84.08;102416.75;5025521;28;20016;-58
2022/10/06 03:35:10;;;;;;;;;;;;;;;10.84;84.19;102422.06;5025507;28;19974;-56
2022/10/06 03:37:35;;;;;;;;;;;;;;;10.85;84.26;102426.41;5031276;28;19995;-57
2022/10/06 03:40:00;;;;;;;;;;;;;;;10.84;84.56;102424.72;5031315;28;19919;-57
2022/10/06 03:42:25;;;;;;;;;;;;;;;10.85;84.41;102422.91;5025796;28;19917;-57
2022/10/06 03:44:50;;;;;;;;;;;;;;;10.86;84.51;102437.88;5029229;28;19967;-57
2022/10/06 03:47:16;;;;;;;;;;;;;;;10.85;84.38;102441.50;5025003;28;19921;-56
2022/10/06 03:49:41;;;;;;;;;;;;;;;10.83;84.10;102441.66;5030738;28;19967;-57
2022/10/06 03:52:06;;;;;;;;;;;;;;;10.81;84.44;102451.56;5032042;28;20007;-58
2022/10/06 03:54:31;;;;;;;;;;;;;;;10.80;83.92;102449.03;5034680;28;19920;-57
2022/10/06 03:56:56;;;;;;;;;;;;;;;10.79;84.11;102458.84;5035450;28;19925;-57
2022/10/06 03:59:21;;;;;;;;;;;;;;;10.77;84.35;102473.22;5027857;28;20348;-56
2022/10/06 04:01:47;;;;;;;;;;;;;;;10.76;84.29;102475.03;5030133;28;19959;-57
2022/10/06 04:04:13;;;;;;;;;;;;;;;10.74;84.38;102477.00;5029974;28;20359;-58
2022/10/06 04:06:40;;;;;;;;;;;;;;;10.71;84.53;102482.56;5027866;28;20080;-57
2022/10/06 04:09:06;;;;;;;;;;;;;;;10.68;84.34;102482.81;5027337;28;19921;-57
2022/10/06 04:11:33;;;;;;;;;;;;;;;10.64;84.96;102492.03;5024011;28;19975;-58
2022/10/06 04:14:03;;;;;;;;;;;;;;;10.64;84.62;102493.84;5028003;28;19924;-55
2022/10/06 04:16:28;;;;;;;;;;;;;;;10.60;84.97;102495.91;5029563;28;20428;-57
2022/10/06 04:18:55;;;;;;;;;;;;;;;10.59;85.30;102506.66;5038304;28;19967;-56
2022/10/06 04:21:21;;;;;;;;;;;;;;;10.54;85.50;102507.06;5021143;28;19928;-56
2022/10/06 04:23:46;;;;;;;;;;;;;;;10.52;85.27;102503.69;5022336;28;19917;-57
2022/10/06 04:26:12;;;;;;;;;;;;;;;10.51;85.45;102518.78;5024577;28;19987;-58
2022/10/06 04:28:38;;;;;;;;;;;;;;;10.49;85.49;102509.28;5033213;28;19975;-57
2022/10/06 04:31:04;;;;;;;;;;;;;;;10.40;85.71;102504.72;5026811;28;19925;-58
2022/10/06 04:33:33;;;;;;;;;;;;;;;10.45;85.93;102518.47;5032197;28;19925;-58
2022/10/06 04:35:58;;;;;;;;;;;;;;;10.42;86.08;102529.34;5032842;28;19917;-58
2022/10/06 04:38:24;;;;;;;;;;;;;;;10.39;85.96;102524.28;5030569;28;20394;-58
2022/10/06 04:40:49;;;;;;;;;;;;;;;10.35;86.19;102531.66;5024834;28;20434;-57
2022/10/06 04:43:14;;;;;;;;;;;;;;;10.34;86.60;102531.78;5037730;28;20269;-58
2022/10/06 04:45:39;;;;;;;;;;;;;;;10.32;86.77;102529.25;5039550;28;19928;-57
2022/10/06 04:48:04;;;;;;;;;;;;;;;10.30;86.82;102533.00;5032585;28;19960;-57
2022/10/06 04:50:29;;;;;;;;;;;;;;;10.26;86.88;102539.56;5034553;28;20368;-56
2022/10/06 04:52:55;;;;;;;;;;;;;;;10.21;87.13;102535.47;5033619;28;19917;-57
2022/10/06 04:55:20;;;;;;;;;;;;;;;10.13;86.90;102540.53;5032373;28;20433;-57
2022/10/06 04:57:45;;;;;;;;;;;;;;;10.14;87.06;102552.84;5029687;28;19921;-58
2022/10/06 05:00:24;;;;;;;;;;;;;;;10.12;87.05;102552.13;5029259;28;19975;-57
2022/10/06 05:02:49;;;;;;;;;;;;;;;10.11;87.39;102553.06;5022841;28;19917;-55
2022/10/06 05:05:15;;;;;;;;;;;;;;;10.08;87.60;102563.09;5036404;28;19920;-56
2022/10/06 05:07:42;;;;;;;;;;;;;;;10.05;87.83;102572.16;5034649;28;20399;-57
2022/10/06 05:10:07;;;;;;;;;;;;;;;10.03;87.93;102574.09;5030029;28;20431;-57
2022/10/06 05:12:32;;;;;;;;;;;;;;;10.04;88.00;102574.94;5029722;28;19921;-57
2022/10/06 05:14:58;;;;;;;;;;;;;;;10.01;87.62;102581.34;5029886;28;19922;-56
2022/10/06 05:17:23;;;;;;;;;;;;;;;9.97;88.01;102579.91;5035004;28;20050;-56
2022/10/06 05:19:48;;;;;;;;;;;;;;;9.96;88.12;102580.88;5034417;28;19920;-56
2022/10/06 05:22:14;;;;;;;;;;;;;;;9.93;88.04;102587.28;5030695;28;20417;-58
2022/10/06 05:24:39;;;;;;;;;;;;;;;9.91;87.94;102588.38;5035177;28;20380;-58
2022/10/06 05:27:05;;;;;;;;;;;;;;;9.90;88.14;102594.66;5029583;28;19920;-56
2022/10/06 05:29:30;;;;;;;;;;;;;;;9.88;88.16;102599.22;5029467;28;20003;-56
2022/10/06 05:31:56;;;;;;;;;;;;;;;9.88;88.63;102600.06;5036994;28;20515;-56
2022/10/06 05:34:21;;;;;;;;;;;;;;;9.88;88.26;102612.50;5026374;28;19917;-57
2022/10/06 05:36:46;;;;;;;;;;;;;;;9.85;88.59;102605.63;5027197;28;19921;-56
2022/10/06 05:39:11;;;;;;;;;;;;;;;9.76;88.28;102600.19;5027839;28;20368;-57
2022/10/06 05:41:37;;;;;;;;;;;;;;;9.80;88.34;102614.91;5025225;28;20004;-57
2022/10/06 05:44:02;;;;;;;;;;;;;;;9.79;88.71;102621.16;5029146;28;19913;-57
2022/10/06 05:46:29;;;;;;;;;;;;;;;9.77;88.57;102626.59;5024260;28;19967;-57
2022/10/06 05:48:55;;;;;;;;;;;;;;;9.75;88.28;102625.88;5025189;28;19924;-57
2022/10/06 05:51:21;;;;;;;;;;;;;;;9.74;88.61;102631.31;5010390;28;19917;-56
2022/10/06 05:53:47;;;;;;;;;;;;;;;9.72;88.75;102639.41;5030703;28;20366;-56
2022/10/06 05:56:14;;;;;;;;;;;;;;;9.72;88.76;102646.50;5036409;28;19917;-57
2022/10/06 05:58:40;;;;;;;;;;;;;;;9.72;88.83;102642.03;5025672;28;20410;-57
2022/10/06 06:01:06;;;;;;;;;;;;;;;9.72;88.79;102646.50;5026204;28;19923;-57
2022/10/06 06:03:31;;;;;;;;;;;;;;;9.70;88.37;102651.94;5022859;28;19914;-56
2022/10/06 06:05:57;;;;;;;;;;;;;;;9.70;88.65;102662.53;5030205;28;19944;-57
2022/10/06 06:08:22;;;;;;;;;;;;;;;9.71;88.60;102663.38;5029424;28;19921;-54
2022/10/06 06:10:47;;;;;;;;;;;;;;;9.70;88.81;102665.19;5026284;28;19928;-58
2022/10/06 06:13:18;;;;;;;;;;;;;;;9.70;88.56;102667.84;5009442;28;19933;-57
2022/10/06 06:16:02;;;;;;;;;;;;;;;9.71;88.70;102679.31;5025064;28;20542;-57
2022/10/06 06:18:28;;;;;;;;;;;;;;;9.70;88.54;102674.97;5022242;28;19925;-57
2022/10/06 06:20:55;;;;;;;;;;;;;;;9.70;88.56;102675.81;5030034;28;19922;-58
2022/10/06 06:23:20;;;;;;;;;;;;;;;9.73;88.42;102680.03;5032045;28;19944;-58
2022/10/06 06:25:54;;;;;;;;;;;;;;;9.75;88.77;102680.75;5029871;28;20389;-58
2022/10/06 06:28:19;;;;;;;;;;;;;;;9.77;88.34;102681.47;5027734;28;19917;-57
2022/10/06 06:30:46;;;;;;;;;;;;;;;9.78;88.65;102677.84;5027216;28;20394;-58
2022/10/06 06:33:12;;;;;;;;;;;;;;;9.79;88.26;102676.88;5035846;28;20300;-57
2022/10/06 06:35:37;;;;;;;;;;;;;;;9.80;88.41;102682.06;5026083;28;20423;-55
2022/10/06 06:38:02;;;;;;;;;;;;;;;9.83;88.14;102683.63;5033190;28;20008;-58
2022/10/06 06:40:27;;;;;;;;;;;;;;;9.85;88.13;102687.06;5031217;28;19936;-57
2022/10/06 06:42:53;;;;;;;;;;;;;;;9.85;88.15;102693.19;5026803;28;19956;-58
2022/10/06 06:45:19;;;;;;;;;;;;;;;9.88;87.97;102700.91;5025835;28;20355;-57
2022/10/06 06:47:46;;;;;;;;;;;;;;;9.91;88.01;102703.31;5021548;28;20377;-58
2022/10/06 06:50:12;;;;;;;;;;;;;;;9.93;88.11;102708.50;5020577;28;19917;-58
2022/10/06 06:52:38;;;;;;;;;;;;;;;9.95;87.84;102711.88;5024939;28;20368;-57
2022/10/06 06:55:03;;;;;;;;;;;;;;;9.96;87.84;102718.88;5021847;28;19936;-56
2022/10/06 06:57:28;;;;;;;;;;;;;;;9.99;87.69;102713.34;5021076;28;19943;-58
2022/10/06 06:59:54;;;;;;;;;;;;;;;10.01;87.65;102716.72;5029720;28;19960;-57
2022/10/06 07:02:23;;;;;;;;;;;;;;;10.02;87.58;102715.75;5020619;28;19960;-57
2022/10/06 07:04:48;;;;;;;;;;;;;;;10.05;87.62;102722.63;5023031;28;19917;-57
2022/10/06 07:07:13;;;;;;;;;;;;;;;10.08;87.61;102728.53;5027830;28;19920;-56
2022/10/06 07:09:38;;;;;;;;;;;;;;;10.12;87.69;102737.97;5028170;28;19917;-57
2022/10/06 07:12:03;;;;;;;;;;;;;;;10.15;87.46;102743.03;5024476;28;19937;-57
2022/10/06 07:14:28;;;;;;;;;;;;;;;10.17;87.41;102738.44;5028584;28;19987;-56
2022/10/06 07:25:05;;;;;;;;;;;;;;;10.38;87.32;102757.13;5027436;28;19983;-57
2022/10/06 07:27:32;;;;;;;;;;;;;;;10.43;87.28;102759.47;5026987;28;19920;-56
2022/10/06 07:29:57;;;;;;;;;;;;;;;10.40;87.38;102757.88;5023400;28;20043;-57
2022/10/06 07:32:23;;;;;;;;;;;;;;;10.53;87.13;102785.16;5027807;28;19948;-54
2022/10/06 07:34:49;;;;;;;;;;;;;;;10.60;87.08;102789.97;5025272;28;20049;-56
2022/10/06 07:37:14;;;;;;;;;;;;;;;10.63;87.07;102797.69;5032824;28;19913;-57
2022/10/06 07:39:39;;;;;;;;;;;;;;;10.69;86.81;102800.69;5024723;28;19928;-57
2022/10/06 07:42:05;;;;;;;;;;;;;;;10.73;86.66;102807.47;5033218;28;20302;-57
2022/10/06 07:44:31;;;;;;;;;;;;;;;10.79;86.46;102799.00;5029590;28;19920;-56
2022/10/06 07:46:56;;;;;;;;;;;;;;;10.86;86.25;102808.16;5027640;28;19913;-57
2022/10/06 07:49:21;;;;;;;;;;;;;;;10.91;86.14;102807.78;5027863;28;20526;-55
2022/10/06 07:51:46;;;;;;;;;;;;;;;10.98;86.08;102810.78;5031190;28;19913;-58
2022/10/06 07:54:11;;;;;;;;;;;;;;;11.06;86.26;102814.53;5024422;28;20359;-56
2022/10/06 07:56:36;;;;;;;;;;;;;;;11.12;86.00;102813.19;5029001;28;19917;-58
2022/10/06 07:59:02;;;;;;;;;;;;;;;11.18;85.58;102815.31;5025607;28;19955;-58
2022/10/06 08:01:29;;;;;;;;;;;;;;;11.24;85.19;102814.81;5022831;28;19921;-58
2022/10/06 08:03:54;;;;;;;;;;;;;;;11.31;85.00;102815.19;5023297;28;19979;-58
2022/10/06 08:06:22;;;;;;;;;;;;;;;11.35;84.87;102830.75;5018207;28;19921;-58
2022/10/06 08:08:47;;;;;;;;;;;;;;;11.41;84.75;102824.91;5026252;28;20368;-57
2022/10/06 08:11:13;;;;;;;;;;;;;;;11.50;84.74;102820.63;5027443;28;19921;-58
2022/10/06 08:13:41;;;;;;;;;;;;;;;11.60;84.57;102829.56;5013913;28;20430;-56
2022/10/06 08:16:07;;;;;;;;;;;;;;;11.69;84.54;102835.91;5028030;28;19917;-56
2022/10/06 08:18:33;;;;;;;;;;;;;;;11.80;84.01;102843.88;5033427;28;19917;-57
2022/10/06 08:20:58;;;;;;;;;;;;;;;11.89;83.75;102852.91;5027312;28;19920;-58
2022/10/06 08:23:24;;;;;;;;;;;;;;;11.96;83.25;102846.94;5024897;28;20319;-57
2022/10/06 08:25:50;;;;;;;;;;;;;;;12.02;82.57;102857.06;5021617;28;19922;-58
2022/10/06 08:28:15;;;;;;;;;;;;;;;12.10;83.02;102857.22;5027581;28;20368;-56
2022/10/06 08:30:41;;;;;;;;;;;;;;;12.17;82.44;102857.56;5025824;28;19920;-57
2022/10/06 08:33:06;;;;;;;;;;;;;;;12.23;81.86;102866.84;5023497;28;20591;-57
2022/10/06 08:35:31;;;;;;;;;;;;;;;12.27;80.81;102857.63;5025626;28;19913;-57
2022/10/06 08:37:57;;;;;;;;;;;;;;;12.37;81.76;102863.81;5024259;28;20403;-57
2022/10/06 08:40:23;;;;;;;;;;;;;;;12.48;81.62;102870.91;5024267;28;20015;-56
2022/10/06 08:42:49;;;;;;;;;;;;;;;12.56;81.11;102865.75;5022627;28;19921;-58
2022/10/06 08:45:19;;;;;;;;;;;;;;;12.64;80.36;102877.41;5024379;28;20068;-57
2022/10/06 08:47:56;;;;;;;;;;;;;;;12.74;80.06;102874.81;5030256;28;19925;-56
2022/10/06 08:50:23;;;;;;;;;;;;;;;12.82;79.59;102880.31;5025384;28;20467;-57
2022/10/06 08:52:59;;;;;;;;;;;;;;;12.90;78.76;102879.63;5022659;28;19921;-56
2022/10/06 08:55:34;;;;;;;;;;;;;;;12.94;78.27;102883.69;5019066;28;20315;-57
2022/10/06 08:58:19;;;;;;;;;;;;;;;13.01;78.03;102884.88;5018291;28;20431;-57
2022/10/06 09:00:44;;;;;;;;;;;;;;;13.08;77.24;102880.66;5021033;28;19921;-58
2022/10/06 09:03:17;;;;;;;;;;;;;;;13.17;77.03;102887.00;5024277;28;20331;-57
2022/10/06 09:05:43;;;;;;;;;;;;;;;13.23;76.82;102889.97;5017393;28;19917;-58
2022/10/06 09:08:18;;;;;;;;;;;;;;;13.27;76.01;102891.38;5007216;28;19917;-58
2022/10/06 09:10:51;;;;;;;;;;;;;;;13.35;76.33;102898.72;5025686;28;19986;-56
2022/10/06 09:13:46;;;;;;;;;;;;;;;13.48;76.35;102907.28;5019914;28;19917;-57
2022/10/06 09:16:16;;;;;;;;;;;;;;;13.58;76.01;102909.97;5012390;28;19917;-57
2022/10/06 09:18:51;;;;;;;;;;;;;;;13.64;75.49;102915.63;5020912;28;21470;-57
2022/10/06 09:21:17;;;;;;;;;;;;;;;13.78;75.15;102921.50;5019222;28;19940;-56
2022/10/06 09:23:48;;;;;;;;;;;;;;;13.80;74.85;102920.38;5023387;28;19917;-56
2022/10/06 09:26:14;;;;;;;;;;;;;;;13.94;75.41;102927.97;5027967;28;20008;-57
2022/10/06 09:28:39;;;;;;;;;;;;;;;14.02;75.85;102929.09;5028552;28;20000;-56
2022/10/06 09:31:17;;;;;;;;;;;;;;;14.09;74.95;102925.69;5031960;28;20001;-56
2022/10/06 09:33:43;;;;;;;;;;;;;;;14.12;73.48;102935.25;5029972;28;19940;-57
2022/10/06 09:36:09;;;;;;;;;;;;;;;14.14;73.41;102930.59;5030770;28;19917;-58
2022/10/06 09:38:54;;;;;;;;;;;;;;;14.19;73.62;102931.88;5031950;28;19963;-58
2022/10/06 09:41:25;;;;;;;;;;;;;;;14.21;72.45;102945.13;5030523;28;19995;-57
2022/10/06 09:43:52;;;;;;;;;;;;;;;14.14;72.38;102941.28;5031505;28;19948;-58
2022/10/06 09:46:19;;;;;;;;;;;;;;;14.12;72.23;102930.75;5030364;28;19920;-58
2022/10/06 09:48:44;;;;;;;;;;;;;;;14.23;72.77;102929.78;5028750;28;19925;-58
2022/10/06 09:51:14;;;;;;;;;;;;;;;14.25;72.15;102936.66;5027599;28;20407;-56
2022/10/06 09:53:40;;;;;;;;;;;;;;;14.34;72.23;102932.28;5030956;28;19927;-58
2022/10/06 09:56:12;;;;;;;;;;;;;;;14.48;72.04;102931.88;5029125;28;19971;-57
2022/10/06 09:58:38;;;;;;;;;;;;;;;14.54;71.79;102941.97;5031775;28;20411;-58
2022/10/06 10:01:07;;;;;;;;;;;;;;;14.62;71.58;102940.41;5025356;28;20384;-58
2022/10/06 10:03:52;;;;;;;;;;;;;;;14.66;72.19;102939.94;5029336;28;19924;-57
2022/10/06 10:06:21;;;;;;;;;;;;;;;14.71;70.29;102944.84;5028901;28;19956;-57
2022/10/06 10:08:46;;;;;;;;;;;;;;;14.53;70.36;102934.09;5028213;28;19989;-57
2022/10/06 10:14:01;;;;;;;;;;;;;;;14.64;70.18;102935.75;5028917;28;19971;-55
2022/10/06 10:16:33;;;;;;;;;;;;;;;14.38;69.41;102954.22;5034978;28;19917;-58
2022/10/06 10:18:58;;;;;;;;;;;;;;;14.16;68.78;102952.69;5032406;28;19913;-57
2022/10/06 10:21:25;;;;;;;;;;;;;;;14.21;69.25;102950.47;5021571;28;19922;-56
2022/10/06 10:23:54;;;;;;;;;;;;;;;14.33;68.71;102954.63;5031047;28;19917;-58
2022/10/06 10:26:25;;;;;;;;;;;;;;;14.24;68.44;102948.34;5026916;28;19913;-56
2022/10/06 10:29:00;;;;;;;;;;;;;;;14.33;68.95;102949.28;5031982;28;20015;-58
2022/10/06 10:31:46;;;;;;;;;;;;;;;14.38;68.96;102947.03;5029482;28;19922;-57
2022/10/06 10:34:15;;;;;;;;;;;;;;;14.48;69.33;102947.91;5024473;28;19925;-57
2022/10/06 10:36:54;;;;;;;;;;;;;;;14.61;69.19;102946.72;5021065;28;19959;-58
2022/10/06 10:39:28;;;;;;;;;;;;;;;14.79;68.80;102951.19;5025470;28;19981;-57
2022/10/06 10:41:55;;;;;;;;;;;;;;;14.92;67.95;102947.31;5027989;28;20012;-57
2022/10/06 10:44:30;;;;;;;;;;;;;;;14.87;67.18;102951.28;5029404;28;19921;-56
2022/10/06 10:47:04;;;;;;;;;;;;;;;14.70;66.80;102948.53;5030907;28;20431;-58
2022/10/06 10:49:30;;;;;;;;;;;;;;;14.56;67.37;102940.00;5022149;28;20030;-56
2022/10/06 10:51:59;;;;;;;;;;;;;;;14.63;67.91;102944.75;5026538;28;19955;-57
2022/10/06 10:54:29;;;;;;;;;;;;;;;14.73;67.42;102956.25;5025198;28;19965;-57
2022/10/06 10:56:54;;;;;;;;;;;;;;;14.81;66.91;102943.00;5025615;28;19928;-57
2022/10/06 10:59:28;;;;;;;;;;;;;;;14.90;66.64;102950.16;5021755;28;19921;-57
2022/10/06 11:02:00;;;;;;;;;;;;;;;14.87;65.80;102958.47;5009023;28;19917;-57
2022/10/06 11:04:25;;;;;;;;;;;;;;;14.89;65.83;102956.47;5027609;28;19917;-58
2022/10/06 11:07:03;;;;;;;;;;;;;;;14.99;65.44;102962.63;5024347;28;19975;-56
2022/10/06 11:09:42;;;;;;;;;;;;;;;15.11;65.43;102960.63;5020473;28;19936;-57
2022/10/06 11:12:08;;;;;;;;;;;;;;;15.31;65.56;102955.97;5025821;28;19920;-58
2022/10/06 11:14:40;;;;;;;;;;;;;;;15.41;64.99;102967.50;5024496;28;19921;-57
2022/10/06 11:17:21;;;;;;;;;;;;;;;15.35;64.51;102968.94;5026107;28;19976;-57
2022/10/06 11:19:54;;;;;;;;;;;;;;;15.45;64.17;102963.53;5022887;28;20393;-58
2022/10/06 11:22:33;;;;;;;;;;;;;;;15.42;63.28;102969.19;5024230;28;19968;-58
2022/10/06 11:25:06;;;;;;;;;;;;;;;15.42;63.35;102953.13;5019468;28;19924;-58
2022/10/06 11:27:49;;;;;;;;;;;;;;;15.45;63.08;102947.44;5023928;28;19925;-58
2022/10/06 11:30:18;;;;;;;;;;;;;;;15.53;63.69;102950.22;5029584;28;20071;-58
2022/10/06 11:33:00;;;;;;;;;;;;;;;15.48;62.61;102957.88;5027620;28;20307;-58
2022/10/06 11:35:26;;;;;;;;;;;;;;;15.52;63.14;102953.88;5031781;28;19925;-57
2022/10/06 11:37:51;;;;;;;;;;;;;;;15.64;62.22;102974.16;5027972;28;19928;-57
2022/10/06 11:40:27;;;;;;;;;;;;;;;15.70;60.47;102968.19;5029680;28;19920;-57
2022/10/06 11:43:03;;;;;;;;;;;;;;;15.73;59.43;102967.03;5032146;28;19917;-57
2022/10/06 11:45:37;;;;;;;;;;;;;;;15.82;59.21;102965.25;5025632;28;19932;-58
2022/10/06 11:48:21;;;;;;;;;;;;;;;15.94;59.14;102964.06;5025486;28;19924;-58
2022/10/06 11:50:50;;;;;;;;;;;;;;;16.08;57.69;102971.53;5022014;28;19963;-58
2022/10/06 11:53:42;;;;;;;;;;;;;;;16.01;56.77;102965.13;5024177;28;19928;-56
2022/10/06 11:56:16;;;;;;;;;;;;;;;16.07;56.92;102951.09;5021265;28;19925;-58
2022/10/06 11:58:50;;;;;;;;;;;;;;;16.18;56.32;102960.72;5021448;28;19927;-58
2022/10/06 12:01:31;;;;;;;;;;;;;;;16.16;55.95;102955.50;5022011;28;19980;-58
2022/10/06 12:04:04;;;;;;;;;;;;;;;16.22;56.11;102954.06;5022217;28;19928;-58
2022/10/06 12:06:50;;;;;;;;;;;;;;;16.27;55.91;102960.63;5022067;28;20360;-58
2022/10/06 12:09:25;;;;;;;;;;;;;;;16.34;56.26;102956.31;5020711;28;19939;-56
2022/10/06 12:12:13;;;;;;;;;;;;;;;16.41;55.54;102962.72;5023650;28;19971;-57
2022/10/06 12:14:44;;;;;;;;;;;;;;;16.49;55.06;102951.25;4999927;28;19925;-57
2022/10/06 12:17:28;;;;;;;;;;;;;;;16.60;55.46;102955.50;5023761;28;19917;-57
2022/10/06 12:20:10;;;;;;;;;;;;;;;16.59;55.57;102948.44;5023235;28;20003;-57
2022/10/06 12:22:54;;;;;;;;;;;;;;;16.71;55.67;102941.81;5025806;28;20376;-58
2022/10/06 12:25:19;;;;;;;;;;;;;;;16.79;54.75;102943.72;5025142;28;20016;-58
2022/10/06 12:28:04;;;;;;;;;;;;;;;16.84;54.74;102941.41;5024983;28;20210;-58
2022/10/06 12:30:40;;;;;;;;;;;;;;;16.87;55.49;102941.91;5022571;28;19924;-58
2022/10/06 12:33:14;;;;;;;;;;;;;;;16.97;55.57;102936.41;5022861;28;19920;-56
2022/10/06 12:35:39;;;;;;;;;;;;;;;17.00;55.60;102936.09;5023722;28;19932;-58
2022/10/06 12:38:25;;;;;;;;;;;;;;;16.98;54.19;102944.31;5022470;28;19967;-58
2022/10/06 12:40:51;;;;;;;;;;;;;;;17.04;54.08;102940.97;5020532;28;19918;-57
2022/10/06 12:43:24;;;;;;;;;;;;;;;17.16;54.17;102935.31;5016488;28;19957;-56
2022/10/06 12:45:55;;;;;;;;;;;;;;;17.33;52.99;102954.00;5024402;28;20458;-56
2022/10/06 12:48:23;;;;;;;;;;;;;;;17.20;51.88;102942.88;5027131;28;19921;-57
2022/10/06 12:50:52;;;;;;;;;;;;;;;17.19;51.73;102932.31;5023372;28;19968;-57
2022/10/06 12:53:26;;;;;;;;;;;;;;;17.09;52.00;102939.66;5028096;28;20479;-57